createdAt,value
2022-09-14T00:00:09.412Z,100640.03
2022-09-14T00:02:42.462Z,100630.59
2022-09-14T00:05:15.199Z,100618.19
2022-09-14T00:07:53.229Z,100613.97
2022-09-14T00:10:25.946Z,100610.72
2022-09-14T00:13:00.222Z,100610.91
2022-09-14T00:15:36.037Z,100610.91
2022-09-14T00:18:11.435Z,100613.72
2022-09-14T00:20:48.137Z,100614.63
2022-09-14T00:23:24.996Z,100613.16
2022-09-14T00:26:06.221Z,100613.16
2022-09-14T00:28:43.885Z,100619.75
2022-09-14T00:31:18.252Z,100619.88
2022-09-14T00:33:52.461Z,100622.72
2022-09-14T00:36:29.261Z,100622.06
2022-09-14T00:39:02.989Z,100615.00
2022-09-14T00:41:38.060Z,100606.25
2022-09-14T00:44:10.523Z,100605.38
2022-09-14T00:46:46.974Z,100600.19
2022-09-14T00:49:27.688Z,100598.56
2022-09-14T00:52:08.913Z,100586.31
2022-09-14T00:54:44.690Z,100575.66
2022-09-14T00:57:18.766Z,100567.03
2022-09-14T00:59:55.334Z,100569.81
2022-09-14T01:02:28.657Z,100575.22
2022-09-14T01:05:01.791Z,100553.94
2022-09-14T01:08:29.313Z,100547.75
2022-09-14T01:11:13.818Z,100551.25
2022-09-14T01:14:04.291Z,100553.13
2022-09-14T01:16:47.948Z,100545.94
2022-09-14T01:19:52.291Z,100540.59
2022-09-14T01:22:36.486Z,100541.63
2022-09-14T01:25:32.806Z,100552.31
2022-09-14T01:28:15.103Z,100555.78
2022-09-14T01:30:50.871Z,100560.25
2022-09-14T01:33:38.105Z,100557.59
2022-09-14T01:36:16.499Z,100556.03
2022-09-14T01:38:52.641Z,100555.09
2022-09-14T01:41:30.293Z,100556.94
2022-09-14T01:44:15.097Z,100547.09
2022-09-14T01:46:55.285Z,100548.91
2022-09-14T01:49:40.193Z,100535.66
2022-09-14T01:52:24.163Z,100540.00
2022-09-14T01:55:34.022Z,100537.38
2022-09-14T01:58:16.460Z,100532.13
2022-09-14T02:00:52.091Z,100531.38
2022-09-14T02:03:29.790Z,100528.78
2022-09-14T02:06:12.608Z,100541.25
2022-09-14T02:08:48.684Z,100527.97
2022-09-14T02:11:23.378Z,100536.03
2022-09-14T02:13:56.062Z,100535.25
2022-09-14T02:16:31.282Z,100540.69
2022-09-14T02:19:07.388Z,100536.34
2022-09-14T02:21:42.623Z,100531.19
2022-09-14T02:24:20.389Z,100525.84
2022-09-14T02:26:57.027Z,100533.81
2022-09-14T02:29:32.290Z,100541.84
2022-09-14T02:32:12.492Z,100539.16
2022-09-14T02:35:09.064Z,100538.25
2022-09-14T02:38:07.308Z,100541.72
2022-09-14T02:41:05.787Z,100537.34
2022-09-14T02:43:56.005Z,100533.88
2022-09-14T02:46:34.065Z,100542.84
2022-09-14T02:49:15.997Z,100535.72
2022-09-14T02:52:02.534Z,100525.25
2022-09-14T02:54:51.453Z,100531.41
2022-09-14T02:57:28.257Z,100526.06
2022-09-14T03:00:03.134Z,100525.16
2022-09-14T03:02:39.813Z,100516.34
2022-09-14T03:05:12.847Z,100517.28
2022-09-14T03:07:45.340Z,100519.88
2022-09-14T03:10:18.205Z,100517.19
2022-09-14T03:12:50.882Z,100511.84
2022-09-14T03:15:26.288Z,100505.50
2022-09-14T03:17:58.727Z,100510.03
2022-09-14T03:20:34.803Z,100510.03
2022-09-14T03:23:09.163Z,100508.28
2022-09-14T03:25:45.892Z,100503.78
2022-09-14T03:28:18.486Z,100502.00
2022-09-14T03:30:51.001Z,100502.13
2022-09-14T03:33:25.790Z,100496.78
2022-09-14T03:35:58.509Z,100492.44
2022-09-14T03:38:33.845Z,100483.69
2022-09-14T03:41:10.180Z,100490.94
2022-09-14T03:43:44.172Z,100485.75
2022-09-14T03:46:23.513Z,100469.78
2022-09-14T03:48:56.555Z,100472.44
2022-09-14T03:51:37.617Z,100465.44
2022-09-14T03:54:10.194Z,100467.28
2022-09-14T03:56:45.212Z,100473.53
2022-09-14T03:59:24.950Z,100469.94
2022-09-14T04:01:58.915Z,100460.28
2022-09-14T04:04:57.882Z,100459.44
2022-09-14T04:07:35.107Z,100458.00
2022-09-14T04:10:08.550Z,100463.19
2022-09-14T04:12:41.065Z,100464.19
2022-09-14T04:15:13.761Z,100465.06
2022-09-14T04:17:46.354Z,100466.09
2022-09-14T04:20:20.247Z,100462.50
2022-09-14T04:22:55.324Z,100458.91
2022-09-14T04:25:30.145Z,100456.38
2022-09-14T04:28:19.759Z,100458.06
2022-09-14T04:31:03.902Z,100456.38
2022-09-14T04:33:39.431Z,100451.94
2022-09-14T04:36:16.213Z,100452.78
2022-09-14T04:38:54.967Z,100455.44
2022-09-14T04:41:30.257Z,100443.06
2022-09-14T04:44:02.907Z,100444.88
2022-09-14T04:46:42.124Z,100450.28
2022-09-14T04:49:24.034Z,100439.56
2022-09-14T04:51:59.303Z,100447.66
2022-09-14T04:54:35.500Z,100438.03
2022-09-14T04:57:14.615Z,100439.00
2022-09-14T04:59:53.130Z,100436.41
2022-09-14T05:02:29.047Z,100426.81
2022-09-14T05:05:12.521Z,100427.66
2022-09-14T05:07:54.046Z,100423.41
2022-09-14T05:10:35.468Z,100424.28
2022-09-14T05:13:10.613Z,100425.16
2022-09-14T05:15:45.781Z,100424.34
2022-09-14T05:21:26.581Z,100419.16
2022-09-14T05:24:08.856Z,100423.53
2022-09-14T05:26:48.344Z,100428.78
2022-09-14T05:29:38.285Z,100421.69
2022-09-14T05:32:25.008Z,100424.22
2022-09-14T05:35:05.550Z,100432.22
2022-09-14T05:37:47.901Z,100423.22
2022-09-14T05:40:30.190Z,100418.75
2022-09-14T05:43:03.166Z,100432.97
2022-09-14T05:46:05.341Z,100432.13
2022-09-14T05:48:41.619Z,100432.06
2022-09-14T05:51:29.531Z,100430.28
2022-09-14T06:02:04.138Z,100446.00
2022-09-14T06:04:39.585Z,100438.94
2022-09-14T06:07:18.696Z,100441.53
2022-09-14T06:09:51.757Z,100449.50
2022-09-14T06:12:27.040Z,100436.97
2022-09-14T06:14:59.578Z,100448.47
2022-09-14T06:17:32.256Z,100452.19
2022-09-14T06:20:09.299Z,100448.78
2022-09-14T06:22:44.683Z,100452.41
2022-09-14T06:25:17.731Z,100456.16
2022-09-14T06:27:54.196Z,100455.97
2022-09-14T06:30:27.809Z,100446.13
2022-09-14T06:33:00.576Z,100454.97
2022-09-14T06:35:33.114Z,100447.09
2022-09-14T06:38:08.430Z,100445.31
2022-09-14T06:40:52.090Z,100453.09
2022-09-14T06:43:26.354Z,100445.94
2022-09-14T06:46:04.783Z,100444.28
2022-09-14T06:48:39.877Z,100434.59
2022-09-14T06:51:15.549Z,100439.19
2022-09-14T06:53:48.524Z,100428.53
2022-09-14T06:56:21.697Z,100424.22
2022-09-14T06:58:54.438Z,100428.75
2022-09-14T07:01:27.676Z,100428.63
2022-09-14T07:04:01.663Z,100427.81
2022-09-14T07:06:43.464Z,100420.75
2022-09-14T07:09:18.427Z,100412.78
2022-09-14T07:11:51.061Z,100422.53
2022-09-14T07:14:23.684Z,100418.09
2022-09-14T07:16:56.254Z,100413.06
2022-09-14T07:19:28.793Z,100411.22
2022-09-14T07:22:01.988Z,100407.00
2022-09-14T07:24:34.538Z,100411.41
2022-09-14T07:27:07.021Z,100410.47
2022-09-14T07:29:39.658Z,100402.31
2022-09-14T07:32:12.125Z,100405.78
2022-09-14T07:34:44.572Z,100408.31
2022-09-14T07:37:16.969Z,100409.81
2022-09-14T07:39:49.504Z,100415.94
2022-09-14T07:42:21.930Z,100413.03
2022-09-14T07:44:54.641Z,100403.94
2022-09-14T07:47:27.030Z,100406.53
2022-09-14T07:49:59.416Z,100402.88
2022-09-14T07:52:35.566Z,100400.75
2022-09-14T07:55:12.509Z,100405.44
2022-09-14T07:57:56.050Z,100410.75
2022-09-14T08:00:29.257Z,100405.28
2022-09-14T08:03:01.852Z,100403.38
2022-09-14T08:05:34.258Z,100389.94
2022-09-14T08:08:06.676Z,100400.47
2022-09-14T08:10:39.108Z,100403.00
2022-09-14T08:13:12.136Z,100403.84
2022-09-14T08:15:45.352Z,100403.97
2022-09-14T08:18:17.964Z,100396.78
2022-09-14T08:20:50.514Z,100393.28
2022-09-14T08:23:23.562Z,100392.91
2022-09-14T08:25:56.154Z,100404.47
2022-09-14T08:28:28.559Z,100401.56
2022-09-14T08:31:10.180Z,100401.38
2022-09-14T08:33:46.236Z,100400.25
2022-09-14T08:36:21.394Z,100404.66
2022-09-14T08:38:54.156Z,100406.44
2022-09-14T08:41:29.581Z,100403.56
2022-09-14T08:44:11.505Z,100407.56
2022-09-14T08:46:59.760Z,100406.72
2022-09-14T08:49:48.760Z,100406.72
2022-09-14T08:52:29.272Z,100404.69
2022-09-14T08:55:19.296Z,100418.03
2022-09-14T08:58:16.246Z,100417.25
2022-09-14T09:01:01.233Z,100418.09
2022-09-14T09:03:53.152Z,100413.63
2022-09-14T09:07:03.723Z,100410.84
2022-09-14T09:09:40.755Z,100415.34
2022-09-14T09:12:21.268Z,100411.75
2022-09-14T09:14:56.843Z,100408.78
2022-09-14T09:17:32.181Z,100410.53
2022-09-14T09:20:23.403Z,100405.19
2022-09-14T09:23:15.544Z,100395.59
2022-09-14T09:26:07.833Z,100406.94
2022-09-14T09:28:52.121Z,100404.63
2022-09-14T09:31:33.142Z,100401.91
2022-09-14T09:34:06.416Z,100398.09
2022-09-14T09:36:41.809Z,100394.25
2022-09-14T09:39:15.721Z,100396.91
2022-09-14T09:41:54.838Z,100400.06
2022-09-14T09:44:27.541Z,100404.13
2022-09-14T09:47:01.749Z,100406.63
2022-09-14T09:49:39.881Z,100400.72
2022-09-14T09:52:17.160Z,100399.66
2022-09-14T09:54:52.662Z,100405.91
2022-09-14T09:57:34.491Z,100402.31
2022-09-14T10:00:11.336Z,100405.66
2022-09-14T10:02:44.090Z,100405.28
2022-09-14T10:05:22.599Z,100398.50
2022-09-14T10:08:00.920Z,100404.56
2022-09-14T10:10:38.605Z,100407.84
2022-09-14T10:13:23.058Z,100409.63
2022-09-14T10:16:07.394Z,100403.38
2022-09-14T10:18:51.404Z,100404.13
2022-09-14T10:21:25.753Z,100409.28
2022-09-14T10:24:14.905Z,100398.47
2022-09-14T10:26:47.359Z,100401.50
2022-09-14T10:29:41.505Z,100399.19
2022-09-14T10:32:20.129Z,100400.97
2022-09-14T10:34:53.044Z,100409.06
2022-09-14T10:37:37.064Z,100392.47
2022-09-14T10:40:17.216Z,100405.25
2022-09-14T10:43:16.857Z,100399.47
2022-09-14T10:45:59.047Z,100395.09
2022-09-14T10:48:57.335Z,100391.72
2022-09-14T10:51:38.929Z,100391.47
2022-09-14T10:54:29.678Z,100403.75
2022-09-14T10:57:26.073Z,100402.00
2022-09-14T11:00:13.199Z,100407.19
2022-09-14T11:03:12.369Z,100398.16
2022-09-14T11:06:26.605Z,100395.28
2022-09-14T11:09:16.333Z,100394.28
2022-09-14T11:11:53.609Z,100390.97
2022-09-14T11:14:34.753Z,100382.41
2022-09-14T11:17:38.352Z,100384.84
2022-09-14T11:20:34.308Z,100374.44
2022-09-14T11:23:25.628Z,100374.41
2022-09-14T11:26:03.158Z,100369.59
2022-09-14T11:28:51.818Z,100373.28
2022-09-14T11:31:37.798Z,100378.84
2022-09-14T11:34:29.063Z,100370.19
2022-09-14T11:37:08.516Z,100373.16
2022-09-14T11:40:05.131Z,100378.72
2022-09-14T11:42:46.515Z,100370.19
2022-09-14T11:45:28.930Z,100370.25
2022-09-14T11:48:42.284Z,100372.47
2022-09-14T11:51:22.444Z,100369.94
2022-09-14T11:53:55.102Z,100374.44
2022-09-14T11:56:32.860Z,100375.44
2022-09-14T11:59:07.259Z,100384.16
2022-09-14T12:01:40.697Z,100385.88
2022-09-14T12:04:17.590Z,100392.59
2022-09-14T12:06:53.968Z,100382.63
2022-09-14T12:09:26.419Z,100370.13
2022-09-14T12:11:59.815Z,100376.69
2022-09-14T12:14:36.472Z,100370.47
2022-09-14T12:17:41.701Z,100378.25
2022-09-14T12:20:52.864Z,100380.34
2022-09-14T12:23:37.247Z,100385.53
2022-09-14T12:26:15.858Z,100383.94
2022-09-14T12:28:50.674Z,100383.94
2022-09-14T12:31:49.356Z,100377.00
2022-09-14T12:34:33.291Z,100371.69
2022-09-14T12:37:30.349Z,100373.13
2022-09-14T12:40:36.308Z,100370.69
2022-09-14T12:43:33.480Z,100369.81
2022-09-14T12:46:38.410Z,100367.81
2022-09-14T12:49:28.565Z,100356.91
2022-09-14T12:52:14.015Z,100353.28
2022-09-14T12:55:16.038Z,100349.81
2022-09-14T12:58:01.558Z,100342.53
2022-09-14T13:00:56.996Z,100341.31
2022-09-14T13:03:51.980Z,100337.69
2022-09-14T13:06:33.022Z,100327.69
2022-09-14T13:09:11.937Z,100344.19
2022-09-14T13:11:46.776Z,100340.00
2022-09-14T13:14:20.249Z,100334.66
2022-09-14T13:16:54.281Z,100331.84
2022-09-14T13:19:29.762Z,100339.84
2022-09-14T13:22:02.480Z,100342.38
2022-09-14T13:24:34.837Z,100345.72
2022-09-14T13:27:33.975Z,100339.78
2022-09-14T13:30:21.706Z,100332.78
2022-09-14T13:32:56.320Z,100341.72
2022-09-14T13:35:45.506Z,100337.47
2022-09-14T13:38:30.986Z,100334.88
2022-09-14T13:41:09.593Z,100335.69
2022-09-14T13:43:43.622Z,100332.94
2022-09-14T13:46:20.242Z,100320.69
2022-09-14T13:48:54.064Z,100335.75
2022-09-14T13:51:28.696Z,100333.22
2022-09-14T13:54:19.663Z,100331.81
2022-09-14T13:57:13.056Z,100333.81
2022-09-14T14:00:26.296Z,100322.88
2022-09-14T14:03:04.408Z,100329.03
2022-09-14T14:05:42.565Z,100328.09
2022-09-14T14:08:35.403Z,100315.09
2022-09-14T14:11:08.771Z,100321.28
2022-09-14T14:13:41.314Z,100318.97
2022-09-14T14:16:18.513Z,100297.56
2022-09-14T14:18:55.445Z,100302.84
2022-09-14T14:21:31.034Z,100316.16
2022-09-14T14:24:21.932Z,100315.06
2022-09-14T14:26:57.336Z,100301.38
2022-09-14T14:29:29.742Z,100308.81
2022-09-14T14:32:02.523Z,100298.59
2022-09-14T14:34:34.944Z,100301.13
2022-09-14T14:37:07.721Z,100297.78
2022-09-14T14:39:40.143Z,100293.41
2022-09-14T14:42:14.208Z,100294.84
2022-09-14T14:44:46.685Z,100282.00
2022-09-14T14:47:19.063Z,100285.41
2022-09-14T14:49:51.425Z,100298.13
2022-09-14T14:52:23.811Z,100286.25
2022-09-14T14:54:56.191Z,100290.88
2022-09-14T14:57:28.865Z,100291.72
2022-09-14T15:00:01.421Z,100289.56
2022-09-14T15:02:33.796Z,100287.19
2022-09-14T15:05:06.866Z,100281.28
2022-09-14T15:07:39.752Z,100283.13
2022-09-14T15:10:15.477Z,100284.47
2022-09-14T15:12:48.096Z,100289.81
2022-09-14T15:15:23.930Z,100278.56
2022-09-14T15:17:56.322Z,100290.66
2022-09-14T15:20:28.790Z,100287.78
2022-09-14T15:23:01.296Z,100280.59
2022-09-14T15:25:33.750Z,100286.47
2022-09-14T15:28:06.224Z,100284.63
2022-09-14T15:30:38.656Z,100295.56
2022-09-14T15:33:11.258Z,100281.22
2022-09-14T15:35:43.673Z,100286.09
2022-09-14T15:38:16.050Z,100290.91
2022-09-14T15:40:48.620Z,100281.84
2022-09-14T15:43:21.156Z,100278.56
2022-09-14T15:45:53.642Z,100275.22
2022-09-14T15:48:26.157Z,100283.66
2022-09-14T15:51:00.628Z,100293.84
2022-09-14T15:53:33.034Z,100304.91
2022-09-14T15:56:13.817Z,100309.25
2022-09-14T15:58:48.960Z,100306.16
2022-09-14T16:01:21.601Z,100310.41
2022-09-14T16:04:01.699Z,100306.25
2022-09-14T16:06:34.660Z,100312.31
2022-09-14T16:09:12.180Z,100319.91
2022-09-14T16:11:44.739Z,100315.19
2022-09-14T16:14:17.305Z,100307.88
2022-09-14T16:16:49.989Z,100312.22
2022-09-14T16:19:22.581Z,100312.06
2022-09-14T16:21:55.414Z,100321.16
2022-09-14T16:24:28.748Z,100324.47
2022-09-14T16:27:01.637Z,100337.72
2022-09-14T16:29:34.218Z,100336.88
2022-09-14T16:32:07.180Z,100344.41
2022-09-14T16:34:39.998Z,100347.09
2022-09-14T16:37:12.649Z,100356.88
2022-09-14T16:39:48.175Z,100352.59
2022-09-14T16:42:21.027Z,100357.06
2022-09-14T16:44:53.460Z,100354.84
2022-09-14T16:47:25.931Z,100351.78
2022-09-14T16:49:58.453Z,100349.97
2022-09-14T16:52:31.256Z,100348.34
2022-09-14T16:55:04.138Z,100347.69
2022-09-14T16:57:36.633Z,100349.72
2022-09-14T17:00:09.886Z,100342.91
2022-09-14T17:02:42.824Z,100345.72
2022-09-14T17:05:15.702Z,100334.50
2022-09-14T17:07:48.144Z,100343.50
2022-09-14T17:10:20.587Z,100335.63
2022-09-14T17:12:52.992Z,100340.28
2022-09-14T17:15:25.373Z,100333.34
2022-09-14T17:17:57.742Z,100335.22
2022-09-14T17:20:30.277Z,100345.44
2022-09-14T17:23:02.704Z,100336.56
2022-09-14T17:25:35.178Z,100348.25
2022-09-14T17:28:07.610Z,100340.16
2022-09-14T17:30:41.848Z,100342.81
2022-09-14T17:33:14.424Z,100343.75
2022-09-14T17:35:48.887Z,100350.97
2022-09-14T17:38:23.218Z,100343.31
2022-09-14T17:41:07.752Z,100334.81
2022-09-14T17:43:40.565Z,100328.09
2022-09-14T17:46:15.878Z,100332.22
2022-09-14T17:48:49.408Z,100331.78
2022-09-14T17:51:25.888Z,100329.41
2022-09-14T17:53:59.001Z,100325.38
2022-09-14T17:56:32.022Z,100334.78
2022-09-14T17:59:11.657Z,100331.59
2022-09-14T18:01:44.153Z,100329.38
2022-09-14T18:04:17.430Z,100331.53
2022-09-14T18:06:50.173Z,100336.38
2022-09-14T18:09:29.250Z,100342.88
2022-09-14T18:12:01.847Z,100345.00
2022-09-14T18:14:34.246Z,100347.09
2022-09-14T18:17:06.978Z,100347.53
2022-09-14T18:19:39.960Z,100347.94
2022-09-14T18:22:12.562Z,100362.50
2022-09-14T18:24:45.070Z,100361.94
2022-09-14T18:27:17.731Z,100361.38
2022-09-14T18:29:50.242Z,100360.97
2022-09-14T18:32:22.760Z,100359.38
2022-09-14T18:34:55.283Z,100360.56
2022-09-14T18:37:27.673Z,100357.28
2022-09-14T18:40:00.646Z,100361.88
2022-09-14T18:42:33.209Z,100360.34
2022-09-14T18:45:07.971Z,100369.44
2022-09-14T18:47:40.399Z,100379.25
2022-09-14T18:50:16.976Z,100377.59
2022-09-14T18:52:51.275Z,100380.34
2022-09-14T18:55:23.733Z,100380.50
2022-09-14T18:57:56.242Z,100385.94
2022-09-14T19:00:28.956Z,100391.31
2022-09-14T19:03:01.645Z,100389.59
2022-09-14T19:05:40.325Z,100391.44
2022-09-14T19:08:13.552Z,100392.31
2022-09-14T19:10:46.068Z,100392.44
2022-09-14T19:13:18.514Z,100383.75
2022-09-14T19:15:51.114Z,100393.56
2022-09-14T19:18:23.829Z,100397.25
2022-09-14T19:21:06.269Z,100394.78
2022-09-14T19:23:39.539Z,100403.69
2022-09-14T19:26:17.820Z,100397.66
2022-09-14T19:28:50.421Z,100409.22
2022-09-14T19:31:24.351Z,100406.69
2022-09-14T19:34:01.538Z,100407.59
2022-09-14T19:36:34.839Z,100402.31
2022-09-14T19:39:07.354Z,100392.63
2022-09-14T19:41:40.152Z,100402.28
2022-09-14T19:44:13.614Z,100408.31
2022-09-14T19:46:46.254Z,100403.81
2022-09-14T19:49:23.861Z,100402.88
2022-09-14T19:51:56.608Z,100404.72
2022-09-14T19:54:29.096Z,100400.34
2022-09-14T19:57:01.712Z,100406.69
2022-09-14T19:59:34.159Z,100402.28
2022-09-14T20:02:07.084Z,100412.91
2022-09-14T20:04:39.602Z,100412.13
2022-09-14T20:07:11.997Z,100424.59
2022-09-14T20:09:44.450Z,100425.56
2022-09-14T20:12:16.930Z,100427.38
2022-09-14T20:14:49.423Z,100423.00
2022-09-14T20:17:21.961Z,100426.59
2022-09-14T20:19:54.352Z,100425.84
2022-09-14T20:22:26.765Z,100422.41
2022-09-14T20:24:59.221Z,100428.63
2022-09-14T20:27:31.722Z,100434.09
2022-09-14T20:30:05.311Z,100441.22
2022-09-14T20:32:37.700Z,100431.53
2022-09-14T20:35:10.169Z,100428.91
2022-09-14T20:37:43.622Z,100432.44
2022-09-14T20:40:16.134Z,100447.44
2022-09-14T20:42:48.518Z,100447.22
2022-09-14T20:45:20.946Z,100448.75
2022-09-14T20:47:53.320Z,100449.47
2022-09-14T20:50:25.691Z,100454.56
2022-09-14T20:52:58.388Z,100452.63
2022-09-14T20:55:32.676Z,100457.81
2022-09-14T20:58:05.057Z,100454.16
2022-09-14T21:00:37.456Z,100468.16
2022-09-14T21:03:11.788Z,100462.81
2022-09-14T21:05:44.485Z,100459.16
2022-09-14T21:08:18.043Z,100467.03
2022-09-14T21:10:50.519Z,100471.31
2022-09-14T21:13:23.463Z,100472.94
2022-09-14T21:15:55.983Z,100474.59
2022-09-14T21:18:28.512Z,100470.97
2022-09-14T21:21:13.278Z,100470.09
2022-09-14T21:23:48.588Z,100472.69
2022-09-14T21:26:21.392Z,100473.50
2022-09-14T21:28:56.915Z,100468.97
2022-09-14T21:31:29.980Z,100467.13
2022-09-14T21:34:04.805Z,100475.09
2022-09-14T21:36:43.023Z,100466.25
2022-09-14T21:39:19.304Z,100474.22
2022-09-14T21:41:58.325Z,100477.88
2022-09-14T21:44:34.545Z,100484.19
2022-09-14T21:47:06.984Z,100483.31
2022-09-14T21:49:39.413Z,100479.06
2022-09-14T21:52:11.799Z,100480.94
2022-09-14T21:54:44.222Z,100476.66
2022-09-14T21:57:16.648Z,100482.97
2022-09-14T21:59:49.229Z,100488.31
2022-09-14T22:02:21.765Z,100490.00
2022-09-14T22:04:54.226Z,100493.50
2022-09-14T22:07:29.099Z,100492.59
2022-09-14T22:10:01.509Z,100492.66
2022-09-14T22:12:34.028Z,100486.44
2022-09-14T22:15:06.837Z,100483.72
2022-09-14T22:17:39.266Z,100492.50
2022-09-14T22:20:11.694Z,100485.41
2022-09-14T22:22:44.436Z,100490.66
2022-09-14T22:25:17.657Z,100491.47
2022-09-14T22:27:51.237Z,100496.78
2022-09-14T22:30:23.674Z,100502.16
2022-09-14T22:32:56.093Z,100511.88
2022-09-14T22:35:28.618Z,100507.31
2022-09-14T22:38:01.834Z,100505.34
2022-09-14T22:40:34.206Z,100506.09
2022-09-14T22:43:06.728Z,100511.41
2022-09-14T22:45:39.403Z,100500.69
2022-09-14T22:48:11.987Z,100508.59
2022-09-14T22:50:46.096Z,100505.88
2022-09-14T22:53:20.195Z,100512.94
2022-09-14T22:55:52.763Z,100503.22
2022-09-14T22:58:27.617Z,100511.13
2022-09-14T23:01:06.398Z,100508.47
2022-09-14T23:03:38.949Z,100512.06
2022-09-14T23:06:11.958Z,100510.31
2022-09-14T23:08:44.435Z,100508.66
2022-09-14T23:11:16.858Z,100503.50
2022-09-14T23:13:50.181Z,100507.31
2022-09-14T23:16:26.207Z,100501.44
2022-09-14T23:19:03.998Z,100507.06
2022-09-14T23:21:36.441Z,100517.09
2022-09-14T23:24:10.450Z,100515.59
2022-09-14T23:26:43.048Z,100510.47
2022-09-14T23:29:17.410Z,100505.38
2022-09-14T23:31:49.824Z,100512.53
2022-09-14T23:34:22.345Z,100507.31
2022-09-14T23:36:56.970Z,100504.78
2022-09-14T23:39:29.616Z,100514.63
2022-09-14T23:42:02.051Z,100512.00
2022-09-14T23:44:34.733Z,100510.28
2022-09-14T23:47:08.022Z,100515.56
2022-09-14T23:49:40.540Z,100512.00
2022-09-14T23:52:13.604Z,100512.09
2022-09-14T23:54:46.038Z,100518.41
2022-09-14T23:57:18.404Z,100529.03
2022-09-14T23:59:50.878Z,100515.91
